sensor_id;sensor_type;location;lat;lon;timestamp;temperature;humidity
12276;DHT22;6200;48.144;11.424;2023-12-14T00:00:41;6.10;99.90
12276;DHT22;6200;48.144;11.424;2023-12-14T00:03:07;6.10;99.90
12276;DHT22;6200;48.144;11.424;2023-12-14T00:05:32;6.10;99.90
12276;DHT22;6200;48.144;11.424;2023-12-14T00:07:58;6.10;99.90
12276;DHT22;6200;48.144;11.424;2023-12-14T00:10:23;6.10;99.90
12276;DHT22;6200;48.144;11.424;2023-12-14T00:12:50;6.10;99.90
12276;DHT22;6200;48.144;11.424;2023-12-14T00:15:16;6.00;99.90
12276;DHT22;6200;48.144;11.424;2023-12-14T00:17:42;6.10;99.90
12276;DHT22;6200;48.144;11.424;2023-12-14T00:20:08;6.10;99.90
12276;DHT22;6200;48.144;11.424;2023-12-14T00:22:33;6.10;99.90
12276;DHT22;6200;48.144;11.424;2023-12-14T00:24:59;6.10;99.90
12276;DHT22;6200;48.144;11.424;2023-12-14T00:27:25;6.10;99.90
12276;DHT22;6200;48.144;11.424;2023-12-14T00:29:50;6.10;99.90
12276;DHT22;6200;48.144;11.424;2023-12-14T00:32:16;6.10;99.90
12276;DHT22;6200;48.144;11.424;2023-12-14T00:34:41;6.10;99.90
12276;DHT22;6200;48.144;11.424;2023-12-14T00:37:07;6.10;99.90
12276;DHT22;6200;48.144;11.424;2023-12-14T00:39:32;6.00;99.90
12276;DHT22;6200;48.144;11.424;2023-12-14T00:41:58;6.10;99.90
12276;DHT22;6200;48.144;11.424;2023-12-14T00:44:23;6.10;99.90
12276;DHT22;6200;48.144;11.424;2023-12-14T00:46:49;6.10;99.90
12276;DHT22;6200;48.144;11.424;2023-12-14T00:49:15;6.10;99.90
12276;DHT22;6200;48.144;11.424;2023-12-14T00:51:43;6.10;99.90
12276;DHT22;6200;48.144;11.424;2023-12-14T00:54:10;6.10;99.90
12276;DHT22;6200;48.144;11.424;2023-12-14T00:56:35;6.10;99.90
12276;DHT22;6200;48.144;11.424;2023-12-14T00:59:01;6.10;99.90
12276;DHT22;6200;48.144;11.424;2023-12-14T01:01:26;6.10;99.90
12276;DHT22;6200;48.144;11.424;2023-12-14T01:03:52;6.10;99.90
12276;DHT22;6200;48.144;11.424;2023-12-14T01:06:17;6.10;99.90
12276;DHT22;6200;48.144;11.424;2023-12-14T01:08:43;6.10;99.90
12276;DHT22;6200;48.144;11.424;2023-12-14T01:11:08;6.10;99.90
12276;DHT22;6200;48.144;11.424;2023-12-14T01:13:34;6.10;99.90
12276;DHT22;6200;48.144;11.424;2023-12-14T01:16:00;6.00;99.90
12276;DHT22;6200;48.144;11.424;2023-12-14T01:18:25;6.10;99.90
12276;DHT22;6200;48.144;11.424;2023-12-14T01:20:51;6.00;99.90
12276;DHT22;6200;48.144;11.424;2023-12-14T01:23:16;6.00;99.90
12276;DHT22;6200;48.144;11.424;2023-12-14T01:25:42;6.10;99.90
12276;DHT22;6200;48.144;11.424;2023-12-14T01:28:07;6.10;99.90
12276;DHT22;6200;48.144;11.424;2023-12-14T01:30:34;6.10;99.90
12276;DHT22;6200;48.144;11.424;2023-12-14T01:32:59;6.00;99.90
12276;DHT22;6200;48.144;11.424;2023-12-14T01:35:25;6.10;99.90
12276;DHT22;6200;48.144;11.424;2023-12-14T01:37:50;6.00;99.90
12276;DHT22;6200;48.144;11.424;2023-12-14T01:40:18;6.00;99.90
12276;DHT22;6200;48.144;11.424;2023-12-14T01:42:45;6.00;99.90
12276;DHT22;6200;48.144;11.424;2023-12-14T01:45:10;6.00;99.90
12276;DHT22;6200;48.144;11.424;2023-12-14T01:47:36;6.00;99.90
12276;DHT22;6200;48.144;11.424;2023-12-14T01:50:01;6.00;99.90
12276;DHT22;6200;48.144;11.424;2023-12-14T01:52:27;6.00;99.90
12276;DHT22;6200;48.144;11.424;2023-12-14T01:54:53;6.00;99.90
12276;DHT22;6200;48.144;11.424;2023-12-14T01:57:20;6.00;99.90
12276;DHT22;6200;48.144;11.424;2023-12-14T01:59:46;6.00;99.90
12276;DHT22;6200;48.144;11.424;2023-12-14T02:02:11;6.00;99.90
12276;DHT22;6200;48.144;11.424;2023-12-14T02:04:37;6.00;99.90
12276;DHT22;6200;48.144;11.424;2023-12-14T02:07:03;6.00;99.90
12276;DHT22;6200;48.144;11.424;2023-12-14T02:09:28;6.00;99.90
12276;DHT22;6200;48.144;11.424;2023-12-14T02:11:54;6.00;99.90
12276;DHT22;6200;48.144;11.424;2023-12-14T02:14:21;5.90;99.90
12276;DHT22;6200;48.144;11.424;2023-12-14T02:16:47;6.00;99.90
12276;DHT22;6200;48.144;11.424;2023-12-14T02:19:12;5.90;99.90
12276;DHT22;6200;48.144;11.424;2023-12-14T02:21:38;5.90;99.90
12276;DHT22;6200;48.144;11.424;2023-12-14T02:24:04;5.90;99.90
12276;DHT22;6200;48.144;11.424;2023-12-14T02:26:29;5.90;99.90
12276;DHT22;6200;48.144;11.424;2023-12-14T02:28:55;5.90;99.90
12276;DHT22;6200;48.144;11.424;2023-12-14T02:31:20;5.80;99.90
12276;DHT22;6200;48.144;11.424;2023-12-14T02:33:46;5.80;99.90
12276;DHT22;6200;48.144;11.424;2023-12-14T02:36:11;5.80;99.90
12276;DHT22;6200;48.144;11.424;2023-12-14T02:38:37;5.80;99.90
12276;DHT22;6200;48.144;11.424;2023-12-14T02:41:02;5.80;99.90
12276;DHT22;6200;48.144;11.424;2023-12-14T02:43:28;5.80;99.90
12276;DHT22;6200;48.144;11.424;2023-12-14T02:45:54;5.80;99.90
12276;DHT22;6200;48.144;11.424;2023-12-14T02:48:20;5.80;99.90
12276;DHT22;6200;48.144;11.424;2023-12-14T02:50:46;5.80;99.90
12276;DHT22;6200;48.144;11.424;2023-12-14T02:53:11;5.80;99.90
12276;DHT22;6200;48.144;11.424;2023-12-14T02:55:37;5.80;99.90
12276;DHT22;6200;48.144;11.424;2023-12-14T02:58:03;5.80;99.90
12276;DHT22;6200;48.144;11.424;2023-12-14T03:00:28;4.30;99.90
12276;DHT22;6200;48.144;11.424;2023-12-14T03:02:54;5.70;99.90
12276;DHT22;6200;48.144;11.424;2023-12-14T03:05:19;5.70;99.90
12276;DHT22;6200;48.144;11.424;2023-12-14T03:07:45;5.70;99.90
12276;DHT22;6200;48.144;11.424;2023-12-14T03:10:10;5.70;99.90
12276;DHT22;6200;48.144;11.424;2023-12-14T03:12:36;5.70;99.90
12276;DHT22;6200;48.144;11.424;2023-12-14T03:15:01;5.70;99.90
12276;DHT22;6200;48.144;11.424;2023-12-14T03:17:27;5.70;99.90
12276;DHT22;6200;48.144;11.424;2023-12-14T03:19:53;5.70;99.90
12276;DHT22;6200;48.144;11.424;2023-12-14T03:22:18;5.70;99.90
12276;DHT22;6200;48.144;11.424;2023-12-14T03:24:44;5.70;99.90
12276;DHT22;6200;48.144;11.424;2023-12-14T03:27:09;5.70;99.90
12276;DHT22;6200;48.144;11.424;2023-12-14T03:29:35;5.70;99.90
12276;DHT22;6200;48.144;11.424;2023-12-14T03:32:01;5.70;99.90
12276;DHT22;6200;48.144;11.424;2023-12-14T03:34:26;5.60;99.90
12276;DHT22;6200;48.144;11.424;2023-12-14T03:36:52;5.70;99.90
12276;DHT22;6200;48.144;11.424;2023-12-14T03:39:17;5.60;99.90
12276;DHT22;6200;48.144;11.424;2023-12-14T03:41:43;5.60;99.90
12276;DHT22;6200;48.144;11.424;2023-12-14T03:44:09;5.70;99.90
12276;DHT22;6200;48.144;11.424;2023-12-14T03:46:34;5.70;99.90
12276;DHT22;6200;48.144;11.424;2023-12-14T03:49:00;5.60;99.90
12276;DHT22;6200;48.144;11.424;2023-12-14T03:51:26;5.60;99.90
12276;DHT22;6200;48.144;11.424;2023-12-14T03:53:51;5.60;99.90
12276;DHT22;6200;48.144;11.424;2023-12-14T03:56:17;5.60;99.90
12276;DHT22;6200;48.144;11.424;2023-12-14T03:58:42;5.60;99.90
12276;DHT22;6200;48.144;11.424;2023-12-14T04:01:14;5.60;99.90
12276;DHT22;6200;48.144;11.424;2023-12-14T04:03:40;5.60;99.90
12276;DHT22;6200;48.144;11.424;2023-12-14T04:06:05;5.60;99.90
12276;DHT22;6200;48.144;11.424;2023-12-14T04:08:31;5.60;99.90
12276;DHT22;6200;48.144;11.424;2023-12-14T04:10:56;5.50;99.90
12276;DHT22;6200;48.144;11.424;2023-12-14T04:13:22;5.60;99.90
12276;DHT22;6200;48.144;11.424;2023-12-14T04:15:47;5.60;99.90
12276;DHT22;6200;48.144;11.424;2023-12-14T04:18:13;5.50;99.90
12276;DHT22;6200;48.144;11.424;2023-12-14T04:20:38;5.50;99.90
12276;DHT22;6200;48.144;11.424;2023-12-14T04:23:04;5.50;99.90
12276;DHT22;6200;48.144;11.424;2023-12-14T04:25:29;5.50;99.90
12276;DHT22;6200;48.144;11.424;2023-12-14T04:27:55;5.50;99.90
12276;DHT22;6200;48.144;11.424;2023-12-14T04:30:20;5.50;99.90
12276;DHT22;6200;48.144;11.424;2023-12-14T04:32:46;5.50;99.90
12276;DHT22;6200;48.144;11.424;2023-12-14T04:35:13;5.40;99.90
12276;DHT22;6200;48.144;11.424;2023-12-14T04:37:38;5.50;99.90
12276;DHT22;6200;48.144;11.424;2023-12-14T04:40:04;5.40;99.90
12276;DHT22;6200;48.144;11.424;2023-12-14T04:42:30;5.40;99.90
12276;DHT22;6200;48.144;11.424;2023-12-14T04:44:55;5.40;99.90
12276;DHT22;6200;48.144;11.424;2023-12-14T04:47:21;5.40;99.90
12276;DHT22;6200;48.144;11.424;2023-12-14T04:49:46;5.40;99.90
12276;DHT22;6200;48.144;11.424;2023-12-14T04:52:12;5.40;99.90
12276;DHT22;6200;48.144;11.424;2023-12-14T04:54:37;5.40;99.90
12276;DHT22;6200;48.144;11.424;2023-12-14T04:57:03;5.40;99.90
12276;DHT22;6200;48.144;11.424;2023-12-14T04:59:29;5.40;99.90
12276;DHT22;6200;48.144;11.424;2023-12-14T05:01:54;5.40;99.90
12276;DHT22;6200;48.144;11.424;2023-12-14T05:04:20;5.40;99.90
12276;DHT22;6200;48.144;11.424;2023-12-14T05:06:46;5.40;99.90
12276;DHT22;6200;48.144;11.424;2023-12-14T05:09:11;5.40;99.90
12276;DHT22;6200;48.144;11.424;2023-12-14T05:11:38;5.30;99.90
12276;DHT22;6200;48.144;11.424;2023-12-14T05:14:04;5.40;99.90
12276;DHT22;6200;48.144;11.424;2023-12-14T05:16:30;5.40;99.90
12276;DHT22;6200;48.144;11.424;2023-12-14T05:18:56;5.40;99.90
12276;DHT22;6200;48.144;11.424;2023-12-14T05:21:22;5.40;99.90
12276;DHT22;6200;48.144;11.424;2023-12-14T05:23:48;5.40;99.90
12276;DHT22;6200;48.144;11.424;2023-12-14T05:26:14;4.00;99.90
12276;DHT22;6200;48.144;11.424;2023-12-14T05:28:39;5.30;99.90
12276;DHT22;6200;48.144;11.424;2023-12-14T05:31:05;5.30;99.90
12276;DHT22;6200;48.144;11.424;2023-12-14T05:33:30;5.40;99.90
12276;DHT22;6200;48.144;11.424;2023-12-14T05:35:57;5.40;99.90
12276;DHT22;6200;48.144;11.424;2023-12-14T05:38:22;5.40;99.90
12276;DHT22;6200;48.144;11.424;2023-12-14T05:40:48;5.40;99.90
12276;DHT22;6200;48.144;11.424;2023-12-14T05:43:13;5.40;99.90
12276;DHT22;6200;48.144;11.424;2023-12-14T05:45:39;5.40;99.90
12276;DHT22;6200;48.144;11.424;2023-12-14T05:48:05;5.40;99.90
12276;DHT22;6200;48.144;11.424;2023-12-14T05:50:31;5.40;99.90
12276;DHT22;6200;48.144;11.424;2023-12-14T05:52:56;5.40;99.90
12276;DHT22;6200;48.144;11.424;2023-12-14T05:55:22;5.40;99.90
12276;DHT22;6200;48.144;11.424;2023-12-14T05:57:48;5.40;99.90
12276;DHT22;6200;48.144;11.424;2023-12-14T06:00:14;5.40;99.90
12276;DHT22;6200;48.144;11.424;2023-12-14T06:02:40;5.40;99.90
12276;DHT22;6200;48.144;11.424;2023-12-14T06:05:07;5.40;99.90
12276;DHT22;6200;48.144;11.424;2023-12-14T06:07:33;5.50;99.90
12276;DHT22;6200;48.144;11.424;2023-12-14T06:09:58;5.50;99.90
12276;DHT22;6200;48.144;11.424;2023-12-14T06:12:24;5.50;99.90
12276;DHT22;6200;48.144;11.424;2023-12-14T06:14:50;5.50;99.90
12276;DHT22;6200;48.144;11.424;2023-12-14T06:17:16;5.50;99.90
12276;DHT22;6200;48.144;11.424;2023-12-14T06:19:42;5.50;99.90
12276;DHT22;6200;48.144;11.424;2023-12-14T06:22:07;5.50;99.90
12276;DHT22;6200;48.144;11.424;2023-12-14T06:24:33;5.50;99.90
12276;DHT22;6200;48.144;11.424;2023-12-14T06:26:58;5.50;99.90
12276;DHT22;6200;48.144;11.424;2023-12-14T06:29:24;5.50;99.90
12276;DHT22;6200;48.144;11.424;2023-12-14T06:31:49;5.60;99.90
12276;DHT22;6200;48.144;11.424;2023-12-14T06:34:16;5.50;99.90
12276;DHT22;6200;48.144;11.424;2023-12-14T06:36:43;5.50;99.90
12276;DHT22;6200;48.144;11.424;2023-12-14T06:39:09;5.60;99.90
12276;DHT22;6200;48.144;11.424;2023-12-14T06:41:34;5.50;99.90
12276;DHT22;6200;48.144;11.424;2023-12-14T06:44:00;5.50;99.90
12276;DHT22;6200;48.144;11.424;2023-12-14T06:46:25;5.60;99.90
12276;DHT22;6200;48.144;11.424;2023-12-14T06:48:51;5.60;99.90
12276;DHT22;6200;48.144;11.424;2023-12-14T06:51:17;5.60;99.90
12276;DHT22;6200;48.144;11.424;2023-12-14T06:53:43;5.60;99.90
12276;DHT22;6200;48.144;11.424;2023-12-14T06:56:09;5.50;99.90
12276;DHT22;6200;48.144;11.424;2023-12-14T06:58:38;5.50;99.90
12276;DHT22;6200;48.144;11.424;2023-12-14T07:01:04;5.50;99.90
12276;DHT22;6200;48.144;11.424;2023-12-14T07:03:30;5.50;99.90
12276;DHT22;6200;48.144;11.424;2023-12-14T07:05:56;5.50;99.90
12276;DHT22;6200;48.144;11.424;2023-12-14T07:08:22;5.50;99.90
12276;DHT22;6200;48.144;11.424;2023-12-14T07:10:48;5.50;99.90
12276;DHT22;6200;48.144;11.424;2023-12-14T07:13:14;5.50;99.90
12276;DHT22;6200;48.144;11.424;2023-12-14T07:15:39;5.50;99.90
12276;DHT22;6200;48.144;11.424;2023-12-14T07:18:05;5.60;99.90
12276;DHT22;6200;48.144;11.424;2023-12-14T07:20:30;5.60;99.90
12276;DHT22;6200;48.144;11.424;2023-12-14T07:22:56;5.60;99.90
12276;DHT22;6200;48.144;11.424;2023-12-14T07:25:21;5.60;99.90
12276;DHT22;6200;48.144;11.424;2023-12-14T07:27:47;5.60;99.90
12276;DHT22;6200;48.144;11.424;2023-12-14T07:30:13;5.70;99.90
12276;DHT22;6200;48.144;11.424;2023-12-14T07:32:39;5.80;99.90
12276;DHT22;6200;48.144;11.424;2023-12-14T07:35:05;5.80;99.90
12276;DHT22;6200;48.144;11.424;2023-12-14T07:37:30;5.80;99.90
12276;DHT22;6200;48.144;11.424;2023-12-14T07:39:56;5.80;99.90
12276;DHT22;6200;48.144;11.424;2023-12-14T07:42:22;5.80;99.90
12276;DHT22;6200;48.144;11.424;2023-12-14T07:44:47;5.90;99.90
12276;DHT22;6200;48.144;11.424;2023-12-14T07:47:13;5.90;99.90
12276;DHT22;6200;48.144;11.424;2023-12-14T07:49:39;6.00;99.90
12276;DHT22;6200;48.144;11.424;2023-12-14T07:52:04;6.00;99.90
12276;DHT22;6200;48.144;11.424;2023-12-14T07:54:30;6.10;99.90
12276;DHT22;6200;48.144;11.424;2023-12-14T07:56:56;6.10;99.90
12276;DHT22;6200;48.144;11.424;2023-12-14T07:59:21;6.10;99.90
12276;DHT22;6200;48.144;11.424;2023-12-14T08:01:47;6.10;99.90
12276;DHT22;6200;48.144;11.424;2023-12-14T08:04:14;6.10;99.90
12276;DHT22;6200;48.144;11.424;2023-12-14T08:06:39;6.10;99.90
12276;DHT22;6200;48.144;11.424;2023-12-14T08:09:05;6.10;99.90
12276;DHT22;6200;48.144;11.424;2023-12-14T08:11:34;6.10;99.90
12276;DHT22;6200;48.144;11.424;2023-12-14T08:14:00;6.10;99.90
12276;DHT22;6200;48.144;11.424;2023-12-14T08:16:25;6.10;99.90
12276;DHT22;6200;48.144;11.424;2023-12-14T08:18:51;6.10;99.90
12276;DHT22;6200;48.144;11.424;2023-12-14T08:21:17;6.10;99.90
12276;DHT22;6200;48.144;11.424;2023-12-14T08:23:44;6.10;99.90
12276;DHT22;6200;48.144;11.424;2023-12-14T08:26:09;6.10;99.90
12276;DHT22;6200;48.144;11.424;2023-12-14T08:28:37;6.10;99.90
12276;DHT22;6200;48.144;11.424;2023-12-14T08:31:03;6.20;99.90
12276;DHT22;6200;48.144;11.424;2023-12-14T08:33:29;6.20;99.90
12276;DHT22;6200;48.144;11.424;2023-12-14T08:35:55;6.20;99.90
12276;DHT22;6200;48.144;11.424;2023-12-14T08:38:21;6.30;99.90
12276;DHT22;6200;48.144;11.424;2023-12-14T08:40:47;6.30;99.90
12276;DHT22;6200;48.144;11.424;2023-12-14T08:43:12;6.30;99.90
12276;DHT22;6200;48.144;11.424;2023-12-14T08:45:38;6.40;99.90
12276;DHT22;6200;48.144;11.424;2023-12-14T08:48:04;6.30;99.90
12276;DHT22;6200;48.144;11.424;2023-12-14T08:50:30;6.30;99.90
12276;DHT22;6200;48.144;11.424;2023-12-14T08:52:55;6.30;99.90
12276;DHT22;6200;48.144;11.424;2023-12-14T08:55:24;6.40;99.90
12276;DHT22;6200;48.144;11.424;2023-12-14T08:57:50;6.40;99.90
12276;DHT22;6200;48.144;11.424;2023-12-14T09:00:16;6.40;99.90
12276;DHT22;6200;48.144;11.424;2023-12-14T09:02:43;6.60;99.90
12276;DHT22;6200;48.144;11.424;2023-12-14T09:05:09;6.60;99.90
12276;DHT22;6200;48.144;11.424;2023-12-14T09:07:35;6.70;99.90
12276;DHT22;6200;48.144;11.424;2023-12-14T09:10:00;6.70;99.90
12276;DHT22;6200;48.144;11.424;2023-12-14T09:12:26;6.80;99.90
12276;DHT22;6200;48.144;11.424;2023-12-14T09:14:51;6.80;99.90
12276;DHT22;6200;48.144;11.424;2023-12-14T09:17:17;6.80;99.90
12276;DHT22;6200;48.144;11.424;2023-12-14T09:19:43;6.80;99.90
12276;DHT22;6200;48.144;11.424;2023-12-14T09:22:09;6.80;99.90
12276;DHT22;6200;48.144;11.424;2023-12-14T09:24:34;6.80;99.90
12276;DHT22;6200;48.144;11.424;2023-12-14T09:27:00;6.70;99.90
12276;DHT22;6200;48.144;11.424;2023-12-14T09:29:25;6.70;99.90
12276;DHT22;6200;48.144;11.424;2023-12-14T09:31:51;6.70;99.90
12276;DHT22;6200;48.144;11.424;2023-12-14T09:34:16;6.70;99.90
12276;DHT22;6200;48.144;11.424;2023-12-14T09:36:43;6.70;99.90
12276;DHT22;6200;48.144;11.424;2023-12-14T09:39:08;6.70;99.90
12276;DHT22;6200;48.144;11.424;2023-12-14T09:41:37;6.70;99.90
12276;DHT22;6200;48.144;11.424;2023-12-14T09:44:05;6.80;99.90
12276;DHT22;6200;48.144;11.424;2023-12-14T09:46:33;6.80;99.90
12276;DHT22;6200;48.144;11.424;2023-12-14T09:49:00;6.80;99.90
12276;DHT22;6200;48.144;11.424;2023-12-14T09:51:27;6.80;99.90
12276;DHT22;6200;48.144;11.424;2023-12-14T09:53:52;6.90;99.90
12276;DHT22;6200;48.144;11.424;2023-12-14T09:56:24;6.90;99.90
12276;DHT22;6200;48.144;11.424;2023-12-14T09:58:49;7.00;99.90
12276;DHT22;6200;48.144;11.424;2023-12-14T10:01:22;7.00;99.90
12276;DHT22;6200;48.144;11.424;2023-12-14T10:03:49;7.00;99.90
12276;DHT22;6200;48.144;11.424;2023-12-14T10:06:15;7.00;99.90
12276;DHT22;6200;48.144;11.424;2023-12-14T10:08:40;7.00;99.90
12276;DHT22;6200;48.144;11.424;2023-12-14T10:11:15;7.00;99.90
12276;DHT22;6200;48.144;11.424;2023-12-14T10:13:41;7.00;99.90
12276;DHT22;6200;48.144;11.424;2023-12-14T10:16:07;7.00;99.90
12276;DHT22;6200;48.144;11.424;2023-12-14T10:18:33;7.00;99.90
12276;DHT22;6200;48.144;11.424;2023-12-14T10:21:02;7.00;99.90
12276;DHT22;6200;48.144;11.424;2023-12-14T10:23:28;6.90;99.90
12276;DHT22;6200;48.144;11.424;2023-12-14T10:25:54;6.90;99.90
12276;DHT22;6200;48.144;11.424;2023-12-14T10:28:20;6.90;99.90
12276;DHT22;6200;48.144;11.424;2023-12-14T10:30:47;6.80;99.90
12276;DHT22;6200;48.144;11.424;2023-12-14T10:33:12;6.90;99.90
12276;DHT22;6200;48.144;11.424;2023-12-14T10:35:39;6.80;99.90
12276;DHT22;6200;48.144;11.424;2023-12-14T10:38:07;6.90;99.90
12276;DHT22;6200;48.144;11.424;2023-12-14T10:40:35;6.90;99.90
12276;DHT22;6200;48.144;11.424;2023-12-14T10:43:06;6.90;99.90
12276;DHT22;6200;48.144;11.424;2023-12-14T10:45:32;6.80;99.90
12276;DHT22;6200;48.144;11.424;2023-12-14T10:47:59;6.90;99.90
12276;DHT22;6200;48.144;11.424;2023-12-14T10:50:29;6.80;99.90
12276;DHT22;6200;48.144;11.424;2023-12-14T10:52:59;6.80;99.90
12276;DHT22;6200;48.144;11.424;2023-12-14T10:55:36;6.90;99.90
12276;DHT22;6200;48.144;11.424;2023-12-14T10:58:03;7.00;99.90
12276;DHT22;6200;48.144;11.424;2023-12-14T11:00:30;7.00;99.90
12276;DHT22;6200;48.144;11.424;2023-12-14T11:02:57;7.10;99.90
12276;DHT22;6200;48.144;11.424;2023-12-14T11:05:27;7.10;99.90
12276;DHT22;6200;48.144;11.424;2023-12-14T11:08:05;7.30;99.90
12276;DHT22;6200;48.144;11.424;2023-12-14T11:10:42;7.60;99.90
12276;DHT22;6200;48.144;11.424;2023-12-14T11:13:09;7.80;99.90
12276;DHT22;6200;48.144;11.424;2023-12-14T11:15:36;7.80;99.90
12276;DHT22;6200;48.144;11.424;2023-12-14T11:23:12;7.90;99.90
12276;DHT22;6200;48.144;11.424;2023-12-14T11:25:41;8.10;99.90
12276;DHT22;6200;48.144;11.424;2023-12-14T11:28:06;8.20;99.90
12276;DHT22;6200;48.144;11.424;2023-12-14T11:30:33;8.30;99.90
12276;DHT22;6200;48.144;11.424;2023-12-14T11:33:00;8.30;99.90
12276;DHT22;6200;48.144;11.424;2023-12-14T11:35:25;8.40;99.90
12276;DHT22;6200;48.144;11.424;2023-12-14T11:37:51;8.70;99.90
12276;DHT22;6200;48.144;11.424;2023-12-14T11:40:16;8.80;99.90
12276;DHT22;6200;48.144;11.424;2023-12-14T11:43:00;8.90;99.90
12276;DHT22;6200;48.144;11.424;2023-12-14T11:45:26;9.00;99.90
12276;DHT22;6200;48.144;11.424;2023-12-14T11:47:53;9.00;99.90
12276;DHT22;6200;48.144;11.424;2023-12-14T11:50:19;9.10;99.90
12276;DHT22;6200;48.144;11.424;2023-12-14T11:52:45;9.00;99.90
12276;DHT22;6200;48.144;11.424;2023-12-14T11:55:11;9.00;99.90
12276;DHT22;6200;48.144;11.424;2023-12-14T11:57:37;9.00;99.90
12276;DHT22;6200;48.144;11.424;2023-12-14T12:00:02;9.00;99.90
12276;DHT22;6200;48.144;11.424;2023-12-14T12:02:28;9.00;99.90
12276;DHT22;6200;48.144;11.424;2023-12-14T12:04:54;9.10;99.90
12276;DHT22;6200;48.144;11.424;2023-12-14T12:07:19;9.00;99.90
12276;DHT22;6200;48.144;11.424;2023-12-14T12:09:47;9.00;99.90
12276;DHT22;6200;48.144;11.424;2023-12-14T12:12:12;8.90;99.90
12276;DHT22;6200;48.144;11.424;2023-12-14T12:14:39;8.80;99.90
12276;DHT22;6200;48.144;11.424;2023-12-14T12:17:06;8.70;99.90
12276;DHT22;6200;48.144;11.424;2023-12-14T12:19:36;8.70;99.90
12276;DHT22;6200;48.144;11.424;2023-12-14T12:22:03;8.60;99.90
12276;DHT22;6200;48.144;11.424;2023-12-14T12:24:29;8.50;99.90
12276;DHT22;6200;48.144;11.424;2023-12-14T12:26:54;8.40;99.90
12276;DHT22;6200;48.144;11.424;2023-12-14T12:29:21;8.40;99.90
12276;DHT22;6200;48.144;11.424;2023-12-14T12:31:46;8.40;99.90
12276;DHT22;6200;48.144;11.424;2023-12-14T12:34:12;8.40;99.90
12276;DHT22;6200;48.144;11.424;2023-12-14T12:36:38;8.30;99.90
12276;DHT22;6200;48.144;11.424;2023-12-14T12:39:04;8.20;99.90
12276;DHT22;6200;48.144;11.424;2023-12-14T12:41:32;8.30;99.90
12276;DHT22;6200;48.144;11.424;2023-12-14T12:43:58;8.20;99.90
12276;DHT22;6200;48.144;11.424;2023-12-14T12:46:24;8.20;99.90
12276;DHT22;6200;48.144;11.424;2023-12-14T12:48:50;8.20;99.90
12276;DHT22;6200;48.144;11.424;2023-12-14T12:51:16;8.20;99.90
12276;DHT22;6200;48.144;11.424;2023-12-14T12:53:42;7.70;99.90
12276;DHT22;6200;48.144;11.424;2023-12-14T12:56:07;8.10;99.90
12276;DHT22;6200;48.144;11.424;2023-12-14T12:58:33;8.10;99.90
12276;DHT22;6200;48.144;11.424;2023-12-14T13:00:58;8.10;99.90
12276;DHT22;6200;48.144;11.424;2023-12-14T13:03:24;8.10;99.90
12276;DHT22;6200;48.144;11.424;2023-12-14T13:05:49;8.20;99.90
12276;DHT22;6200;48.144;11.424;2023-12-14T13:08:15;8.10;99.90
12276;DHT22;6200;48.144;11.424;2023-12-14T13:10:41;8.00;99.90
12276;DHT22;6200;48.144;11.424;2023-12-14T13:13:06;8.00;99.90
12276;DHT22;6200;48.144;11.424;2023-12-14T13:15:33;8.00;99.90
12276;DHT22;6200;48.144;11.424;2023-12-14T13:18:00;7.90;99.90
12276;DHT22;6200;48.144;11.424;2023-12-14T13:20:26;7.80;99.90
12276;DHT22;6200;48.144;11.424;2023-12-14T13:22:51;7.90;99.90
12276;DHT22;6200;48.144;11.424;2023-12-14T13:25:18;7.90;99.90
12276;DHT22;6200;48.144;11.424;2023-12-14T13:27:44;7.90;99.90
12276;DHT22;6200;48.144;11.424;2023-12-14T13:30:11;7.90;99.90
12276;DHT22;6200;48.144;11.424;2023-12-14T13:32:36;7.90;99.90
12276;DHT22;6200;48.144;11.424;2023-12-14T13:35:02;7.90;99.90
12276;DHT22;6200;48.144;11.424;2023-12-14T13:37:28;7.90;99.90
12276;DHT22;6200;48.144;11.424;2023-12-14T13:39:53;7.90;99.90
12276;DHT22;6200;48.144;11.424;2023-12-14T13:42:19;7.90;99.90
12276;DHT22;6200;48.144;11.424;2023-12-14T13:44:44;7.80;99.90
12276;DHT22;6200;48.144;11.424;2023-12-14T13:47:10;7.80;99.90
12276;DHT22;6200;48.144;11.424;2023-12-14T13:49:36;7.80;99.90
12276;DHT22;6200;48.144;11.424;2023-12-14T13:52:03;7.90;99.90
12276;DHT22;6200;48.144;11.424;2023-12-14T13:54:29;7.90;99.90
12276;DHT22;6200;48.144;11.424;2023-12-14T13:56:54;7.80;99.90
12276;DHT22;6200;48.144;11.424;2023-12-14T13:59:20;7.80;99.90
12276;DHT22;6200;48.144;11.424;2023-12-14T14:01:45;7.70;99.90
12276;DHT22;6200;48.144;11.424;2023-12-14T14:04:11;7.80;99.90
12276;DHT22;6200;48.144;11.424;2023-12-14T14:06:37;7.80;99.90
12276;DHT22;6200;48.144;11.424;2023-12-14T14:09:02;7.70;99.90
12276;DHT22;6200;48.144;11.424;2023-12-14T14:11:29;7.70;99.90
12276;DHT22;6200;48.144;11.424;2023-12-14T14:13:54;7.70;99.90
12276;DHT22;6200;48.144;11.424;2023-12-14T14:16:20;7.80;99.90
12276;DHT22;6200;48.144;11.424;2023-12-14T14:18:46;7.80;99.90
12276;DHT22;6200;48.144;11.424;2023-12-14T14:21:11;7.80;99.90
12276;DHT22;6200;48.144;11.424;2023-12-14T14:23:37;7.70;99.90
12276;DHT22;6200;48.144;11.424;2023-12-14T14:26:03;7.70;99.90
12276;DHT22;6200;48.144;11.424;2023-12-14T14:28:28;7.70;99.90
12276;DHT22;6200;48.144;11.424;2023-12-14T14:30:54;7.70;99.90
12276;DHT22;6200;48.144;11.424;2023-12-14T14:33:19;7.60;99.90
12276;DHT22;6200;48.144;11.424;2023-12-14T14:35:45;7.60;99.90
12276;DHT22;6200;48.144;11.424;2023-12-14T14:38:14;7.60;99.90
12276;DHT22;6200;48.144;11.424;2023-12-14T14:40:41;7.60;99.90
12276;DHT22;6200;48.144;11.424;2023-12-14T14:43:07;7.60;99.90
12276;DHT22;6200;48.144;11.424;2023-12-14T14:45:33;7.50;99.90
12276;DHT22;6200;48.144;11.424;2023-12-14T14:47:59;7.50;99.90
12276;DHT22;6200;48.144;11.424;2023-12-14T14:50:24;7.40;99.90
12276;DHT22;6200;48.144;11.424;2023-12-14T14:52:50;7.40;99.90
12276;DHT22;6200;48.144;11.424;2023-12-14T14:55:15;7.30;99.90
12276;DHT22;6200;48.144;11.424;2023-12-14T14:57:41;7.30;99.90
12276;DHT22;6200;48.144;11.424;2023-12-14T15:00:07;7.30;99.90
12276;DHT22;6200;48.144;11.424;2023-12-14T15:02:33;7.20;99.90
12276;DHT22;6200;48.144;11.424;2023-12-14T15:04:59;7.20;99.90
12276;DHT22;6200;48.144;11.424;2023-12-14T15:07:24;7.20;99.90
12276;DHT22;6200;48.144;11.424;2023-12-14T15:09:50;7.10;99.90
12276;DHT22;6200;48.144;11.424;2023-12-14T15:12:15;7.10;99.90
12276;DHT22;6200;48.144;11.424;2023-12-14T15:14:41;7.10;99.90
12276;DHT22;6200;48.144;11.424;2023-12-14T15:17:07;7.00;99.90
12276;DHT22;6200;48.144;11.424;2023-12-14T15:19:32;7.00;99.90
12276;DHT22;6200;48.144;11.424;2023-12-14T15:21:58;7.00;99.90
12276;DHT22;6200;48.144;11.424;2023-12-14T15:24:23;7.00;99.90
12276;DHT22;6200;48.144;11.424;2023-12-14T15:26:49;7.00;99.90
12276;DHT22;6200;48.144;11.424;2023-12-14T15:29:15;6.90;99.90
12276;DHT22;6200;48.144;11.424;2023-12-14T15:31:40;6.90;99.90
12276;DHT22;6200;48.144;11.424;2023-12-14T15:34:06;6.90;99.90
12276;DHT22;6200;48.144;11.424;2023-12-14T15:36:34;6.90;99.90
12276;DHT22;6200;48.144;11.424;2023-12-14T15:39:00;6.80;99.90
12276;DHT22;6200;48.144;11.424;2023-12-14T15:41:26;6.80;99.90